Time;durP1;ratioP1;P1;durP2;ratioP2;P2;SDS_P1;SDS_P2;PMS_P1;PMS_P2;Temp;Humidity;BMP_temperature;BMP_pressure;BME280_temperature;BME280_humidity;BME280_pressure;Samples;Min_cycle;Max_cycle;Signal;HPM_P1;HPM_P2
2021/11/10 00:00:42;;;;;;;11.35;4.97;;;5.30;92.50;;;;;;4962017;28;20022;-65
2021/11/10 00:03:09;;;;;;;11.70;4.88;;;5.30;92.60;;;;;;4965946;28;20030;-65
2021/11/10 00:05:35;;;;;;;15.05;4.82;;;5.30;92.70;;;;;;4967186;28;20038;-65
2021/11/10 00:08:02;;;;;;;13.30;5.20;;;5.20;92.80;;;;;;4979835;28;20041;-65
2021/11/10 00:10:27;;;;;;;14.38;4.85;;;5.20;93.00;;;;;;4963911;28;20046;-65
2021/11/10 00:12:57;;;;;;;10.70;5.07;;;5.20;92.90;;;;;;4966943;28;20454;-65
2021/11/10 00:15:23;;;;;;;13.75;5.30;;;5.20;93.00;;;;;;4974007;28;20403;-65
2021/11/10 00:17:49;;;;;;;16.40;4.88;;;5.20;93.00;;;;;;4981394;28;20209;-65
2021/11/10 00:20:15;;;;;;;10.98;4.70;;;5.20;93.00;;;;;;4966834;28;20022;-65
2021/11/10 00:22:41;;;;;;;13.27;5.18;;;5.30;92.90;;;;;;4965250;28;20455;-65
2021/11/10 00:25:07;;;;;;;8.38;4.50;;;5.20;92.90;;;;;;4964033;28;20594;-65
2021/11/10 00:27:33;;;;;;;12.73;5.22;;;5.20;92.80;;;;;;4976886;28;20267;-65
2021/11/10 00:29:58;;;;;;;13.48;5.20;;;5.20;92.60;;;;;;4963421;28;21352;-65
2021/11/10 00:32:24;;;;;;;13.75;5.05;;;5.10;92.70;;;;;;4964689;28;20048;-65
2021/11/10 00:34:50;;;;;;;10.43;4.93;;;5.10;92.90;;;;;;4964404;28;20031;-65
2021/11/10 00:37:15;;;;;;;9.90;4.72;;;5.10;93.10;;;;;;4978364;28;20281;-64
2021/11/10 00:39:41;;;;;;;12.77;4.65;;;5.10;92.80;;;;;;4962548;28;20086;-64
2021/11/10 00:42:06;;;;;;;13.05;5.07;;;5.10;92.90;;;;;;4968311;28;20347;-64
2021/11/10 00:44:32;;;;;;;14.50;4.72;;;5.00;93.20;;;;;;4975948;28;20042;-65
2021/11/10 00:46:57;;;;;;;13.20;5.55;;;5.10;93.20;;;;;;4970323;28;20035;-64
2021/11/10 00:49:23;;;;;;;19.77;5.13;;;5.10;93.30;;;;;;4964359;28;20506;-64
2021/11/10 00:51:49;;;;;;;11.18;5.00;;;5.10;93.10;;;;;;4948247;28;20027;-64
2021/11/10 00:54:14;;;;;;;12.48;5.18;;;5.10;93.00;;;;;;4966184;28;20425;-64
2021/11/10 00:56:40;;;;;;;9.55;5.03;;;5.10;93.10;;;;;;4966738;28;20479;-64
2021/11/10 00:59:05;;;;;;;12.73;5.45;;;5.00;93.10;;;;;;4967175;28;20037;-64
2021/11/10 01:01:31;;;;;;;16.13;5.47;;;5.10;93.20;;;;;;4961647;28;20126;-65
2021/11/10 01:03:56;;;;;;;10.27;5.10;;;5.10;92.90;;;;;;4969005;28;20030;-64
2021/11/10 01:06:22;;;;;;;14.75;5.18;;;5.10;92.80;;;;;;4967043;28;20052;-65
2021/11/10 01:08:47;;;;;;;15.27;5.10;;;5.10;93.00;;;;;;4968279;28;20468;-64
2021/11/10 01:11:13;;;;;;;14.40;5.03;;;5.10;93.00;;;;;;4963986;28;20038;-65
2021/11/10 01:13:39;;;;;;;15.15;4.85;;;5.00;93.10;;;;;;4965378;28;20022;-64
2021/11/10 01:16:05;;;;;;;10.57;5.05;;;5.00;93.20;;;;;;4968641;28;20033;-64
2021/11/10 01:18:30;;;;;;;12.07;5.07;;;5.00;93.20;;;;;;4966237;28;20483;-64
2021/11/10 01:20:56;;;;;;;15.60;5.28;;;5.00;93.30;;;;;;4966556;28;20030;-64
2021/11/10 01:23:22;;;;;;;13.98;5.45;;;5.00;93.10;;;;;;4965200;28;20055;-64
2021/11/10 01:25:48;;;;;;;13.18;5.30;;;5.00;93.30;;;;;;4974604;28;20181;-65
2021/11/10 01:28:13;;;;;;;10.32;5.00;;;5.00;93.10;;;;;;4964314;28;20034;-64
2021/11/10 01:30:40;;;;;;;11.73;4.90;;;5.00;93.10;;;;;;4964531;28;20031;-65
2021/11/10 01:33:06;;;;;;;13.68;4.85;;;5.00;93.30;;;;;;4965260;28;20038;-65
2021/11/10 01:35:32;;;;;;;14.13;4.97;;;5.10;92.70;;;;;;4970625;28;20023;-65
2021/11/10 01:37:58;;;;;;;14.65;5.18;;;5.10;92.70;;;;;;4961826;28;20029;-65
2021/11/10 01:40:24;;;;;;;10.13;4.97;;;5.10;92.50;;;;;;4962980;28;20031;-66
2021/11/10 01:42:51;;;;;;;13.70;5.18;;;5.00;92.70;;;;;;4966176;28;20031;-66
2021/11/10 01:45:18;;;;;;;12.73;5.07;;;4.90;92.80;;;;;;4967179;28;20459;-65
2021/11/10 01:47:44;;;;;;;12.55;4.85;;;5.00;93.00;;;;;;4967935;28;20502;-65
2021/11/10 01:50:14;;;;;;;15.38;5.35;;;5.10;92.60;;;;;;4957561;28;20042;-65
2021/11/10 01:52:42;;;;;;;10.60;4.50;;;5.10;92.60;;;;;;4961882;28;20065;-65
2021/11/10 01:55:08;;;;;;;10.48;4.82;;;5.10;92.20;;;;;;4964644;28;20035;-65
2021/11/10 01:57:34;;;;;;;14.20;5.07;;;5.10;92.10;;;;;;4967445;28;20054;-65
2021/11/10 02:00:08;;;;;;;11.18;4.63;;;5.10;92.30;;;;;;4960658;28;20423;-66
2021/11/10 02:02:34;;;;;;;16.30;4.90;;;5.10;92.40;;;;;;4961134;28;20061;-65
2021/11/10 02:05:00;;;;;;;11.02;4.70;;;5.00;92.50;;;;;;4966686;28;20034;-65
2021/11/10 02:07:26;;;;;;;10.98;5.03;;;5.00;92.40;;;;;;4965864;28;20042;-65
2021/11/10 02:09:52;;;;;;;10.02;5.40;;;5.00;92.60;;;;;;4961707;28;20126;-65
2021/11/10 02:12:19;;;;;;;13.27;5.45;;;5.00;92.60;;;;;;4961827;28;20105;-65
2021/11/10 02:14:45;;;;;;;14.57;4.68;;;5.00;92.40;;;;;;4967622;28;20058;-65
2021/11/10 02:17:17;;;;;;;10.95;4.75;;;5.00;92.50;;;;;;4972171;28;20054;-65
2021/11/10 02:19:43;;;;;;;11.70;4.65;;;4.90;92.30;;;;;;4964165;28;20065;-65
2021/11/10 02:22:08;;;;;;;9.88;4.70;;;4.90;92.20;;;;;;4940538;28;20066;-65
2021/11/10 02:24:37;;;;;;;11.95;5.20;;;4.90;92.50;;;;;;4967861;28;20524;-65
2021/11/10 02:27:03;;;;;;;13.45;4.88;;;4.80;92.50;;;;;;4963516;28;20026;-65
2021/11/10 02:29:30;;;;;;;13.35;5.03;;;4.80;92.70;;;;;;4964840;28;20030;-65
2021/11/10 02:31:57;;;;;;;14.30;5.22;;;4.70;92.70;;;;;;4964411;28;20210;-66
2021/11/10 02:34:23;;;;;;;13.73;5.07;;;4.60;92.90;;;;;;4965248;28;20086;-65
2021/11/10 02:36:49;;;;;;;12.32;5.00;;;4.50;93.00;;;;;;4962226;28;20027;-65
2021/11/10 02:39:21;;;;;;;8.25;4.93;;;4.40;93.40;;;;;;4966626;28;20034;-65
2021/11/10 02:41:47;;;;;;;7.57;4.45;;;4.40;93.60;;;;;;4966837;28;20043;-65
2021/11/10 02:44:21;;;;;;;16.02;5.30;;;4.30;93.60;;;;;;4964002;28;20037;-65
2021/11/10 02:46:50;;;;;;;12.63;5.68;;;4.20;93.70;;;;;;4987950;23;20055;-73
2021/11/10 02:49:16;;;;;;;15.50;5.45;;;4.20;94.10;;;;;;4978311;28;20038;-74
2021/11/10 02:52:13;;;;;;;13.35;5.22;;;4.30;94.00;;;;;;4954078;28;20049;-74
2021/11/10 02:54:53;;;;;;;12.35;5.80;;;4.20;94.00;;;;;;4948567;28;20158;-74
2021/11/10 02:57:26;;;;;;;11.88;5.32;;;4.10;94.10;;;;;;4949238;28;20022;-74
2021/11/10 02:59:52;;;;;;;12.95;5.40;;;4.10;94.20;;;;;;4944428;28;20428;-74
2021/11/10 03:02:36;;;;;;;13.00;5.60;;;4.10;94.20;;;;;;4943960;28;20031;-74
2021/11/10 03:05:03;;;;;;;15.55;5.85;;;4.20;94.60;;;;;;4957378;28;20479;-74
2021/11/10 03:07:29;;;;;;;14.80;5.40;;;4.10;94.20;;;;;;4954777;28;20513;-74
2021/11/10 03:09:55;;;;;;;12.98;5.97;;;4.10;94.20;;;;;;4962519;28;20109;-74
2021/11/10 03:12:20;;;;;;;11.00;5.50;;;4.00;94.40;;;;;;4955865;28;20035;-74
2021/11/10 03:14:46;;;;;;;10.90;5.30;;;4.10;94.60;;;;;;4963962;28;20046;-75
2021/11/10 03:17:14;;;;;;;12.65;6.18;;;4.00;94.40;;;;;;4958541;28;20551;-74
2021/11/10 03:19:40;;;;;;;12.10;5.75;;;3.90;94.60;;;;;;4961260;28;20101;-74
2021/11/10 03:22:08;;;;;;;13.88;6.18;;;3.90;94.80;;;;;;4946782;28;20464;-74
2021/11/10 03:24:34;;;;;;;12.70;6.30;;;3.90;95.00;;;;;;4944565;28;20111;-74
2021/11/10 03:27:00;;;;;;;17.38;6.28;;;4.00;94.90;;;;;;4955322;28;20031;-74
2021/11/10 03:29:26;;;;;;;15.43;6.55;;;3.90;94.70;;;;;;4958228;28;20453;-74
2021/11/10 03:31:52;;;;;;;14.02;6.03;;;3.90;94.90;;;;;;4948637;28;20035;-74
2021/11/10 03:34:17;;;;;;;15.75;6.05;;;3.90;94.90;;;;;;4950101;28;20426;-73
2021/11/10 03:36:43;;;;;;;11.70;5.95;;;3.90;95.00;;;;;;4944352;28;20070;-74
2021/11/10 03:39:11;;;;;;;15.27;6.43;;;3.90;95.00;;;;;;4946018;28;20029;-74
2021/11/10 03:41:37;;;;;;;18.08;7.05;;;3.90;94.90;;;;;;4974176;28;20480;-74
2021/11/10 03:44:04;;;;;;;13.75;6.43;;;4.00;94.90;;;;;;4965269;28;20049;-74
2021/11/10 03:46:30;;;;;;;12.60;6.57;;;4.00;94.70;;;;;;4951224;28;20583;-74
2021/11/10 03:48:56;;;;;;;11.48;6.15;;;4.00;94.80;;;;;;4961672;28;20035;-74
2021/11/10 03:51:21;;;;;;;16.70;6.15;;;4.00;94.90;;;;;;4951759;28;20045;-74
2021/11/10 03:53:48;;;;;;;17.67;6.25;;;3.90;94.80;;;;;;4967551;28;20106;-74
2021/11/10 03:56:13;;;;;;;13.93;5.85;;;3.90;94.70;;;;;;4964190;28;20033;-74
2021/11/10 03:58:39;;;;;;;14.63;6.00;;;4.00;94.80;;;;;;4944893;28;20507;-74
2021/11/10 04:01:05;;;;;;;13.63;5.57;;;4.00;94.70;;;;;;4961443;28;20035;-74
2021/11/10 04:03:32;;;;;;;14.90;6.05;;;4.00;94.60;;;;;;4946390;28;20417;-72
2021/11/10 04:05:59;;;;;;;11.75;6.00;;;3.90;94.70;;;;;;4953108;28;20019;-74
2021/11/10 04:08:24;;;;;;;12.82;6.50;;;3.90;94.80;;;;;;4947172;28;20031;-74
2021/11/10 04:10:50;;;;;;;15.25;5.88;;;3.80;94.80;;;;;;4944518;28;20078;-73
2021/11/10 04:13:16;;;;;;;9.48;5.53;;;4.00;94.80;;;;;;4959348;28;20089;-74
2021/11/10 04:15:42;;;;;;;10.57;5.63;;;4.00;94.90;;;;;;4959949;28;20019;-74
2021/11/10 04:18:07;;;;;;;16.35;6.63;;;3.90;94.60;;;;;;4951007;28;20062;-74
2021/11/10 04:20:33;;;;;;;15.02;6.32;;;3.90;94.60;;;;;;4960988;28;20054;-74
2021/11/10 04:22:59;;;;;;;13.90;5.95;;;3.80;94.80;;;;;;4968107;28;20132;-74
2021/11/10 04:25:24;;;;;;;11.65;6.00;;;3.80;94.70;;;;;;4962586;28;20069;-74
2021/11/10 04:27:51;;;;;;;10.35;5.80;;;3.80;94.80;;;;;;4953123;28;20034;-74
2021/11/10 04:30:17;;;;;;;12.18;5.95;;;3.80;94.90;;;;;;4962330;28;20108;-74
2021/11/10 04:32:44;;;;;;;15.02;6.28;;;3.80;95.00;;;;;;4963417;28;20035;-74
2021/11/10 04:35:12;;;;;;;11.38;6.32;;;3.80;94.90;;;;;;4967381;28;20019;-74
2021/11/10 04:37:38;;;;;;;15.88;6.40;;;3.90;94.90;;;;;;4962890;28;20034;-74
2021/11/10 04:40:06;;;;;;;11.38;5.82;;;3.80;94.60;;;;;;4961143;28;20427;-74
2021/11/10 04:42:32;;;;;;;11.63;6.10;;;3.80;94.70;;;;;;4959390;28;20042;-75
2021/11/10 04:45:04;;;;;;;14.00;6.50;;;3.80;94.90;;;;;;4963256;28;20050;-74
2021/11/10 04:47:30;;;;;;;13.10;6.35;;;3.70;94.90;;;;;;4960614;28;20031;-74
2021/11/10 04:49:55;;;;;;;12.95;5.85;;;3.70;95.00;;;;;;4958718;28;20026;-74
2021/11/10 04:52:21;;;;;;;13.65;6.72;;;3.60;95.10;;;;;;4966862;28;20053;-74
2021/11/10 04:54:48;;;;;;;12.48;6.07;;;3.60;95.10;;;;;;4949470;28;20125;-74
2021/11/10 04:57:14;;;;;;;14.90;6.55;;;3.60;95.30;;;;;;4953634;28;20125;-74
2021/11/10 04:59:40;;;;;;;14.73;6.63;;;3.60;95.30;;;;;;4963574;28;20140;-74
2021/11/10 05:04:35;;;;;;;11.88;6.47;;;3.60;95.30;;;;;;4956445;28;20125;-74
2021/11/10 05:07:01;;;;;;;14.23;6.82;;;3.60;95.50;;;;;;4966337;28;20034;-74
2021/11/10 05:09:27;;;;;;;12.35;6.80;;;3.60;95.50;;;;;;4939200;28;20146;-74
2021/11/10 05:11:53;;;;;;;16.25;7.53;;;3.60;95.30;;;;;;4965588;28;20106;-75
2021/11/10 05:14:19;;;;;;;13.93;7.05;;;3.70;95.40;;;;;;4950996;28;20035;-74
2021/11/10 05:16:45;;;;;;;10.60;6.82;;;3.60;95.30;;;;;;4965069;28;20086;-74
2021/11/10 05:19:10;;;;;;;12.00;6.90;;;3.70;95.50;;;;;;4958989;28;20022;-75
2021/11/10 05:21:36;;;;;;;14.40;6.82;;;3.70;95.00;;;;;;4949872;28;20496;-75
2021/11/10 05:24:02;;;;;;;12.70;6.07;;;3.70;95.10;;;;;;4960382;28;20117;-75
2021/11/10 05:26:28;;;;;;;13.57;6.75;;;3.70;95.10;;;;;;4954806;28;20097;-75
2021/11/10 05:28:53;;;;;;;12.05;6.78;;;3.70;94.90;;;;;;4958591;28;20028;-75
2021/11/10 05:31:20;;;;;;;14.77;7.32;;;3.60;94.90;;;;;;4964657;28;20026;-74
2021/11/10 05:33:45;;;;;;;16.40;7.03;;;3.60;95.10;;;;;;4947444;28;20065;-75
2021/11/10 05:36:11;;;;;;;16.23;7.07;;;3.60;95.10;;;;;;4947609;28;20046;-75
2021/11/10 05:38:36;;;;;;;12.55;6.57;;;3.50;95.10;;;;;;4948267;28;20096;-75
2021/11/10 05:41:02;;;;;;;12.70;6.93;;;3.40;95.10;;;;;;4964308;28;20106;-75
2021/11/10 05:43:28;;;;;;;15.45;6.75;;;3.40;95.30;;;;;;4962551;28;20140;-75
2021/11/10 05:45:53;;;;;;;13.25;6.55;;;3.30;95.40;;;;;;4977081;28;20053;-75
2021/11/10 05:48:19;;;;;;;13.20;7.20;;;3.30;95.60;;;;;;4965453;28;20023;-75
2021/11/10 05:50:47;;;;;;;16.17;8.23;;;3.30;95.80;;;;;;4960080;28;20045;-75
2021/11/10 05:53:13;;;;;;;11.50;7.55;;;3.20;95.60;;;;;;4955521;28;20132;-75
2021/11/10 05:55:40;;;;;;;14.95;8.25;;;3.20;95.60;;;;;;4957779;28;20098;-75
2021/11/10 05:58:06;;;;;;;13.95;6.97;;;3.30;95.90;;;;;;4955723;28;20015;-75
2021/11/10 06:00:32;;;;;;;15.75;7.28;;;3.20;95.80;;;;;;4963000;28;20040;-75
2021/11/10 06:02:57;;;;;;;17.27;6.88;;;3.10;95.70;;;;;;4960773;28;20540;-75
2021/11/10 06:05:23;;;;;;;14.15;7.25;;;3.10;96.00;;;;;;4963653;28;20384;-75
2021/11/10 06:07:49;;;;;;;15.45;6.75;;;3.10;96.10;;;;;;4945901;28;20122;-75
2021/11/10 06:10:17;;;;;;;15.13;6.95;;;3.10;96.00;;;;;;4959544;28;20027;-75
2021/11/10 06:12:44;;;;;;;13.00;7.03;;;3.10;96.10;;;;;;4963188;28;20090;-75
2021/11/10 06:15:10;;;;;;;14.75;7.85;;;3.10;96.20;;;;;;4945054;28;20053;-75
2021/11/10 06:17:36;;;;;;;18.50;8.48;;;3.00;96.20;;;;;;4963964;28;20540;-75
2021/11/10 06:20:02;;;;;;;14.80;7.82;;;3.10;96.40;;;;;;4960176;28;20094;-75
2021/11/10 06:22:29;;;;;;;17.95;8.48;;;3.10;96.30;;;;;;4960424;28;20081;-75
2021/11/10 06:24:55;;;;;;;17.52;7.65;;;3.10;96.30;;;;;;4959804;28;20045;-75
2021/11/10 06:27:20;;;;;;;16.52;7.97;;;3.10;96.40;;;;;;4963448;28;20043;-75
2021/11/10 06:29:46;;;;;;;20.83;8.35;;;3.20;96.40;;;;;;4942514;28;20441;-75
2021/11/10 06:32:11;;;;;;;17.65;8.85;;;3.20;96.30;;;;;;4969598;28;20511;-75
2021/11/10 06:34:37;;;;;;;14.95;8.60;;;3.20;96.30;;;;;;4966125;28;20034;-75
2021/11/10 06:37:03;;;;;;;15.18;8.93;;;3.20;96.20;;;;;;4951785;28;20069;-75
2021/11/10 06:39:29;;;;;;;18.15;9.15;;;3.20;96.20;;;;;;4972081;28;20041;-75
2021/11/10 06:41:54;;;;;;;16.25;8.90;;;3.10;96.10;;;;;;4946502;28;21845;-75
2021/11/10 06:44:20;;;;;;;17.00;9.45;;;3.10;96.20;;;;;;4943533;28;20206;-75
2021/11/10 06:46:45;;;;;;;17.15;8.20;;;3.10;96.20;;;;;;4955068;28;20034;-75
2021/11/10 06:49:11;;;;;;;17.90;9.20;;;3.10;96.10;;;;;;4962527;28;20039;-75
2021/11/10 06:51:38;;;;;;;14.98;8.52;;;3.10;96.20;;;;;;4963064;28;20459;-74
2021/11/10 06:54:03;;;;;;;20.23;8.65;;;3.20;96.20;;;;;;4938225;28;20368;-75
2021/11/10 06:56:29;;;;;;;17.05;8.52;;;3.10;96.10;;;;;;4958336;28;20112;-75
2021/11/10 06:58:55;;;;;;;16.13;8.50;;;3.10;96.00;;;;;;4954764;28;20118;-75
2021/11/10 07:01:20;;;;;;;16.30;9.00;;;3.10;96.10;;;;;;4958568;28;20026;-74
2021/11/10 07:03:47;;;;;;;17.40;7.80;;;3.10;96.10;;;;;;4964664;28;20027;-75
2021/11/10 07:06:12;;;;;;;18.60;8.50;;;3.10;96.20;;;;;;4960289;28;20030;-75
2021/11/10 07:08:38;;;;;;;16.90;7.97;;;3.10;96.30;;;;;;4957369;28;20392;-75
2021/11/10 07:11:04;;;;;;;15.25;8.05;;;3.20;96.30;;;;;;4963719;28;20053;-75
2021/11/10 07:13:29;;;;;;;17.73;7.93;;;3.30;96.20;;;;;;4944555;28;20062;-75
2021/11/10 07:15:54;;;;;;;14.35;8.30;;;3.20;96.00;;;;;;4961222;28;20035;-75
2021/11/10 07:18:20;;;;;;;17.73;8.50;;;3.30;96.00;;;;;;4935228;28;20085;-75
2021/11/10 07:20:45;;;;;;;18.65;8.02;;;3.30;96.00;;;;;;4955629;28;20042;-75
2021/11/10 07:23:11;;;;;;;15.75;8.10;;;3.40;96.10;;;;;;4960856;28;20076;-75
2021/11/10 07:25:37;;;;;;;17.13;7.85;;;3.40;95.90;;;;;;4954891;28;20137;-75
2021/11/10 07:28:03;;;;;;;16.35;7.72;;;3.50;96.00;;;;;;4960071;28;20211;-75
2021/11/10 07:30:29;;;;;;;14.05;8.43;;;3.60;95.80;;;;;;4959336;28;20712;-75
2021/11/10 07:32:54;;;;;;;18.02;7.20;;;3.80;95.40;;;;;;4946507;28;20129;-75
2021/11/10 07:35:20;;;;;;;14.85;7.55;;;3.80;95.10;;;;;;4964394;28;20023;-75
2021/11/10 07:37:47;;;;;;;17.70;7.00;;;3.90;95.20;;;;;;4946526;28;20508;-77
2021/11/10 07:40:15;;;;;;;14.63;7.90;;;4.00;94.80;;;;;;4946803;28;20089;-75
2021/11/10 07:42:42;;;;;;;10.35;7.07;;;4.10;95.00;;;;;;4958756;28;20034;-76
2021/11/10 07:45:16;;;;;;;14.90;7.13;;;4.00;94.50;;;;;;4953333;28;20169;-75
2021/11/10 07:47:42;;;;;;;13.60;6.75;;;4.10;94.30;;;;;;4959045;28;20162;-76
2021/11/10 07:50:20;;;;;;;14.32;6.65;;;4.10;94.10;;;;;;4955645;28;20242;-75
2021/11/10 07:52:47;;;;;;;11.13;5.95;;;4.10;94.00;;;;;;4954965;28;20441;-76
2021/11/10 07:55:13;;;;;;;14.45;5.75;;;4.10;94.00;;;;;;4940503;28;20106;-76
2021/11/10 07:57:39;;;;;;;11.98;5.53;;;4.10;94.00;;;;;;4958839;28;20031;-76
2021/11/10 08:00:07;;;;;;;12.95;6.45;;;4.10;94.20;;;;;;4962373;28;20575;-75
2021/11/10 08:02:33;;;;;;;10.90;5.88;;;4.10;94.20;;;;;;4945710;28;20141;-75
2021/11/10 08:04:58;;;;;;;15.27;6.03;;;4.10;94.30;;;;;;4938071;28;20102;-75
2021/11/10 08:07:24;;;;;;;14.82;6.57;;;4.10;94.30;;;;;;4948437;28;20109;-75
2021/11/10 08:09:49;;;;;;;9.85;6.25;;;4.20;94.20;;;;;;4955681;28;20046;-76
2021/11/10 08:12:15;;;;;;;13.55;6.65;;;4.30;94.00;;;;;;4958986;28;20031;-76
2021/11/10 08:14:41;;;;;;;10.77;6.00;;;4.50;94.20;;;;;;4945535;28;20045;-76
2021/11/10 08:17:06;;;;;;;11.50;6.32;;;4.70;94.00;;;;;;4949445;28;20042;-77
2021/11/10 08:19:31;;;;;;;11.70;6.45;;;4.80;93.60;;;;;;4964128;28;20571;-76
2021/11/10 08:21:57;;;;;;;14.15;5.97;;;5.10;93.80;;;;;;4949903;28;20034;-74
2021/11/10 08:24:26;;;;;;;14.20;6.10;;;5.20;93.20;;;;;;4945158;28;20157;-75
2021/11/10 08:26:51;;;;;;;11.63;5.47;;;5.20;92.00;;;;;;4962254;28;20038;-75
2021/11/10 08:29:17;;;;;;;12.13;5.78;;;5.40;92.20;;;;;;4968560;28;20418;-76
2021/11/10 08:31:42;;;;;;;12.25;5.63;;;5.60;92.30;;;;;;4954443;28;20113;-76
2021/11/10 08:34:08;;;;;;;12.65;5.47;;;5.70;91.20;;;;;;4960221;28;20489;-77
2021/11/10 08:36:34;;;;;;;9.40;5.13;;;5.80;90.10;;;;;;4949900;28;20034;-77
2021/11/10 08:38:59;;;;;;;11.50;5.35;;;5.90;89.90;;;;;;4955878;28;20989;-76
2021/11/10 08:41:25;;;;;;;13.30;5.60;;;6.10;89.30;;;;;;4954466;28;20067;-76
2021/11/10 08:43:51;;;;;;;9.57;5.10;;;6.10;88.70;;;;;;4962659;28;20031;-76
2021/11/10 08:46:22;;;;;;;10.00;5.03;;;6.10;88.10;;;;;;4959772;28;20109;-76
2021/11/10 08:48:48;;;;;;;8.20;4.88;;;6.20;88.30;;;;;;4964121;28;20065;-76
2021/11/10 08:51:13;;;;;;;11.32;5.30;;;6.20;88.00;;;;;;4956113;28;20031;-77
2021/11/10 08:53:39;;;;;;;12.70;5.10;;;6.30;87.90;;;;;;4948337;28;20109;-76
2021/11/10 08:56:06;;;;;;;10.23;5.22;;;6.40;87.40;;;;;;4966875;28;20057;-76
2021/11/10 08:58:31;;;;;;;10.63;5.22;;;6.60;88.10;;;;;;4961219;28;20495;-75
2021/11/10 09:00:58;;;;;;;12.20;5.95;;;7.00;87.80;;;;;;4961504;28;20026;-76
2021/11/10 09:03:25;;;;;;;10.13;4.80;;;7.10;86.00;;;;;;4946758;28;20026;-77
2021/11/10 09:05:52;;;;;;;12.43;5.47;;;7.10;85.40;;;;;;4961246;28;20114;-77
2021/11/10 09:08:23;;;;;;;9.57;5.00;;;7.20;86.00;;;;;;4964009;28;20027;-76
2021/11/10 09:10:48;;;;;;;10.43;5.00;;;7.30;85.80;;;;;;4942220;28;20034;-76
2021/11/10 09:13:14;;;;;;;8.13;4.70;;;7.10;85.50;;;;;;4948140;28;20027;-76
2021/11/10 09:15:40;;;;;;;12.93;5.38;;;7.10;85.30;;;;;;4946534;28;20805;-76
2021/11/10 09:18:07;;;;;;;11.10;5.80;;;7.10;85.00;;;;;;4959626;28;20062;-76
2021/11/10 09:20:35;;;;;;;14.65;5.82;;;7.20;85.70;;;;;;4942920;28;20032;-78
2021/11/10 09:23:04;;;;;;;10.90;5.85;;;7.30;85.10;;;;;;4944963;28;20038;-77
2021/11/10 09:25:31;;;;;;;11.80;5.43;;;7.40;84.90;;;;;;4945447;28;20402;-77
2021/11/10 09:27:59;;;;;;;10.07;5.78;;;7.40;84.10;;;;;;4963584;28;20071;-77
2021/11/10 09:30:27;;;;;;;9.27;5.18;;;7.50;84.20;;;;;;4958084;28;20113;-77
2021/11/10 09:32:53;;;;;;;9.05;5.78;;;7.50;84.10;;;;;;4956452;28;20126;-77
2021/11/10 09:35:21;;;;;;;11.68;6.22;;;7.70;84.40;;;;;;4946536;28;20045;-77
2021/11/10 09:37:49;;;;;;;11.38;5.22;;;7.90;83.40;;;;;;4947734;28;20479;-77
2021/11/10 09:40:17;;;;;;;11.90;5.30;;;8.10;82.90;;;;;;4935949;28;20464;-77
2021/11/10 09:42:43;;;;;;;13.32;5.80;;;8.10;83.20;;;;;;4962582;28;20117;-77
2021/11/10 09:45:12;;;;;;;10.40;5.75;;;8.10;82.40;;;;;;4965958;28;20034;-77
2021/11/10 09:47:39;;;;;;;12.10;5.80;;;7.90;82.40;;;;;;4952587;28;20669;-77
2021/11/10 09:50:06;;;;;;;12.60;6.30;;;8.00;83.00;;;;;;4943187;28;20130;-78
2021/11/10 09:52:31;;;;;;;10.95;5.63;;;7.90;83.20;;;;;;4962637;28;20101;-77
2021/11/10 09:54:58;;;;;;;11.18;6.38;;;8.00;83.60;;;;;;4943544;28;20131;-78
2021/11/10 09:57:24;;;;;;;13.55;6.18;;;8.10;83.00;;;;;;4942242;28;20034;-77
2021/11/10 09:59:50;;;;;;;12.05;5.95;;;8.10;83.30;;;;;;4940337;28;20027;-77
2021/11/10 10:02:16;;;;;;;11.98;5.65;;;8.10;83.80;;;;;;4937036;28;20034;-77
2021/11/10 10:04:44;;;;;;;12.10;6.20;;;8.10;83.60;;;;;;4951809;28;20042;-78
2021/11/10 10:07:11;;;;;;;10.02;6.38;;;8.10;83.10;;;;;;4959206;28;20031;-77
2021/11/10 10:09:37;;;;;;;10.15;5.47;;;8.20;83.10;;;;;;4962188;28;20031;-77
2021/11/10 10:12:04;;;;;;;12.35;6.43;;;8.30;83.40;;;;;;4964438;28;21482;-77
2021/11/10 10:14:30;;;;;;;11.80;5.93;;;8.30;83.60;;;;;;4964232;28;20510;-77
2021/11/10 10:16:56;;;;;;;11.55;5.55;;;8.30;83.20;;;;;;4947111;28;20067;-77
2021/11/10 10:19:23;;;;;;;9.88;5.68;;;8.40;83.60;;;;;;4959887;28;20149;-77
2021/11/10 10:22:00;;;;;;;10.70;5.43;;;8.50;83.60;;;;;;4946271;28;20034;-77
2021/11/10 10:24:25;;;;;;;9.05;5.13;;;8.60;83.50;;;;;;4959123;28;20484;-77
2021/11/10 10:26:51;;;;;;;10.98;5.88;;;8.40;83.50;;;;;;4964990;28;20037;-77
2021/11/10 10:29:17;;;;;;;9.45;5.85;;;8.40;83.60;;;;;;4961864;28;20055;-77
2021/11/10 10:31:43;;;;;;;11.82;6.22;;;8.40;83.50;;;;;;4958997;28;20038;-77
2021/11/10 10:34:12;;;;;;;15.13;5.60;;;8.50;83.80;;;;;;4955409;28;20406;-77
2021/11/10 10:36:40;;;;;;;10.93;5.63;;;8.60;83.20;;;;;;4959537;28;20035;-77
2021/11/10 10:39:13;;;;;;;13.23;6.05;;;8.80;83.20;;;;;;4946547;28;20535;-77
2021/11/10 10:41:45;;;;;;;15.52;6.07;;;9.00;82.50;;;;;;4956746;28;20120;-77
2021/11/10 10:44:17;;;;;;;10.55;5.43;;;8.90;82.30;;;;;;4955867;28;20176;-77
2021/11/10 10:46:45;;;;;;;10.63;5.90;;;9.00;82.80;;;;;;4962885;28;20125;-77
2021/11/10 10:49:21;;;;;;;8.77;5.40;;;9.10;82.70;;;;;;4943723;28;20435;-78
2021/11/10 10:51:50;;;;;;;13.18;5.85;;;8.90;82.20;;;;;;4937126;28;20195;-76
2021/11/10 10:54:15;;;;;;;11.27;6.15;;;9.00;82.10;;;;;;4955444;28;20042;-76
2021/11/10 10:56:49;;;;;;;11.70;5.82;;;9.20;83.10;;;;;;4959576;28;20408;-75
2021/11/10 10:59:15;;;;;;;12.13;5.65;;;9.40;82.40;;;;;;4939693;28;20058;-77
2021/11/10 11:01:53;;;;;;;10.95;5.55;;;9.20;81.70;;;;;;4943456;28;20089;-76
2021/11/10 11:04:27;;;;;;;13.77;6.05;;;9.20;83.40;;;;;;4961213;28;20066;-76
2021/11/10 11:07:12;;;;;;;12.35;5.68;;;9.50;82.80;;;;;;4940518;28;20461;-76
2021/11/10 11:09:50;;;;;;;10.82;5.45;;;9.90;82.00;;;;;;4956897;28;20034;-76
2021/11/10 11:12:26;;;;;;;11.43;5.18;;;10.00;80.50;;;;;;4955673;28;20449;-76
2021/11/10 11:15:11;;;;;;;11.60;5.70;;;10.20;79.60;;;;;;4954286;28;20039;-76
2021/11/10 11:17:43;;;;;;;12.85;5.68;;;10.50;80.40;;;;;;4961949;28;20345;-78
2021/11/10 11:20:18;;;;;;;11.43;5.93;;;10.50;79.60;;;;;;4955884;28;20055;-77
2021/11/10 11:22:51;;;;;;;9.55;4.95;;;10.70;79.70;;;;;;4948462;28;20121;-75
2021/11/10 11:25:20;;;;;;;11.25;4.45;;;10.90;77.80;;;;;;4955869;28;20035;-77
2021/11/10 11:28:04;;;;;;;9.90;4.85;;;11.40;77.00;;;;;;4957915;28;20031;-77
2021/11/10 11:30:36;;;;;;;10.25;4.28;;;11.60;75.90;;;;;;4954528;28;20532;-77
2021/11/10 11:33:07;;;;;;;9.63;4.53;;;12.00;76.90;;;;;;4960030;28;20039;-77
2021/11/10 11:35:41;;;;;;;8.80;4.60;;;11.90;75.90;;;;;;4935638;28;20057;-77
2021/11/10 11:38:22;;;;;;;8.65;4.18;;;11.80;76.50;;;;;;4942783;28;20057;-78
2021/11/10 11:40:50;;;;;;;8.50;4.50;;;11.90;76.60;;;;;;4950613;28;20050;-78
2021/11/10 11:43:18;;;;;;;11.50;4.65;;;12.00;74.90;;;;;;4959504;28;20141;-75
2021/11/10 11:45:47;;;;;;;12.27;4.90;;;11.90;75.60;;;;;;4945461;28;20061;-77
2021/11/10 11:48:18;;;;;;;8.40;4.32;;;11.80;76.20;;;;;;4949619;28;20231;-77
2021/11/10 11:50:45;;;;;;;9.32;4.38;;;12.00;74.80;;;;;;4961026;28;20069;-76
2021/11/10 11:53:11;;;;;;;10.85;4.72;;;12.20;75.50;;;;;;4965181;28;20045;-77
2021/11/10 11:55:40;;;;;;;11.13;5.32;;;12.20;72.90;;;;;;4958843;28;20023;-76
2021/11/10 11:58:21;;;;;;;10.60;4.78;;;12.70;73.20;;;;;;4959853;28;20027;-76
2021/11/10 12:00:57;;;;;;;10.50;4.17;;;12.70;72.60;;;;;;4961178;28;20393;-75
2021/11/10 12:03:27;;;;;;;9.77;4.95;;;12.70;71.10;;;;;;4961922;28;20037;-78
2021/11/10 12:06:02;;;;;;;11.57;5.25;;;13.10;71.80;;;;;;4947766;28;20109;-75
2021/11/10 12:08:46;;;;;;;8.27;4.63;;;12.60;70.30;;;;;;4945640;28;20220;-77
2021/11/10 12:11:23;;;;;;;12.63;5.00;;;12.60;72.30;;;;;;4960010;28;20038;-77
2021/11/10 12:14:04;;;;;;;10.80;5.10;;;12.40;71.00;;;;;;4956155;28;20035;-77
2021/11/10 12:16:51;;;;;;;9.23;4.97;;;12.60;71.40;;;;;;4943907;28;20047;-77
2021/11/10 12:19:28;;;;;;;8.82;4.93;;;12.60;71.30;;;;;;4947663;28;20441;-77
2021/11/10 12:22:00;;;;;;;9.30;4.30;;;12.50;71.20;;;;;;4965806;28;20051;-79
2021/11/10 12:24:51;;;;;;;10.57;4.93;;;12.60;72.20;;;;;;4966341;28;20035;-78
2021/11/10 12:27:32;;;;;;;11.82;4.35;;;12.60;72.40;;;;;;4958905;28;20156;-77
2021/11/10 12:30:01;;;;;;;12.25;4.18;;;12.80;71.70;;;;;;4960687;28;20212;-75
2021/11/10 12:32:29;;;;;;;8.55;4.47;;;12.10;73.50;;;;;;4962482;28;20042;-77
2021/11/10 12:34:58;;;;;;;8.63;4.47;;;11.90;75.00;;;;;;4945833;28;20146;-76
2021/11/10 12:37:35;;;;;;;10.82;4.40;;;11.90;75.60;;;;;;4957106;28;20358;-75
2021/11/10 12:40:20;;;;;;;9.02;4.20;;;11.70;76.00;;;;;;4959648;28;20458;-77
2021/11/10 12:42:54;;;;;;;9.68;4.35;;;11.50;76.90;;;;;;4941473;28;20035;-77
2021/11/10 12:45:27;;;;;;;7.43;4.32;;;11.40;78.10;;;;;;4960713;28;20034;-75
2021/11/10 12:47:56;;;;;;;10.52;4.28;;;11.50;77.40;;;;;;4949603;28;20038;-78
2021/11/10 12:50:43;;;;;;;8.88;4.30;;;11.50;77.30;;;;;;4957700;28;20166;-77
2021/11/10 12:53:33;;;;;;;8.00;4.32;;;11.60;78.50;;;;;;4942651;28;20108;-76